createdAt,value
2019-01-22T00:00:27.988Z,19.27
2019-01-22T00:02:59.465Z,18.27
2019-01-22T00:05:32.413Z,20.10
2019-01-22T00:08:05.021Z,18.70
2019-01-22T00:10:33.409Z,19.83
2019-01-22T00:13:01.882Z,18.07
2019-01-22T00:15:33.009Z,16.53
2019-01-22T00:18:11.149Z,18.30
2019-01-22T00:20:51.710Z,16.57
2019-01-22T00:23:20.040Z,17.67
2019-01-22T00:25:51.280Z,18.47
2019-01-22T00:28:25.558Z,17.67
2019-01-22T00:31:02.859Z,16.80
2019-01-22T00:33:33.890Z,17.40
2019-01-22T00:36:03.924Z,19.93
2019-01-22T00:38:34.037Z,17.87
2019-01-22T00:41:04.133Z,17.20
2019-01-22T00:43:38.809Z,20.67
2019-01-22T00:46:11.297Z,19.37
2019-01-22T00:48:42.537Z,19.13
2019-01-22T00:51:13.612Z,18.37
2019-01-22T00:53:42.012Z,18.10
2019-01-22T00:56:16.261Z,20.37
2019-01-22T00:58:55.168Z,19.33
2019-01-22T01:01:23.561Z,18.07
2019-01-22T01:03:54.381Z,20.13
2019-01-22T01:06:24.481Z,20.23
2019-01-22T01:08:56.241Z,22.23
2019-01-22T01:11:24.637Z,21.13
2019-01-22T01:13:53.045Z,21.23
2019-01-22T01:16:24.517Z,19.77
2019-01-22T01:18:52.912Z,18.57
2019-01-22T01:21:22.262Z,19.10
2019-01-22T01:23:52.297Z,17.67
2019-01-22T01:26:20.973Z,16.83
2019-01-22T01:28:52.413Z,18.10
2019-01-22T01:31:26.413Z,19.67
2019-01-22T01:34:01.786Z,18.57
2019-01-22T01:36:30.234Z,18.53
2019-01-22T01:39:01.358Z,19.00
2019-01-22T01:41:41.333Z,17.70
2019-01-22T01:44:12.624Z,17.40
2019-01-22T01:46:52.625Z,20.37
2019-01-22T01:49:22.666Z,20.77
2019-01-22T01:51:51.057Z,19.90
2019-01-22T01:54:19.449Z,21.73
2019-01-22T01:56:51.658Z,19.90
2019-01-22T01:59:22.461Z,19.37
2019-01-22T02:01:53.745Z,18.10
2019-01-22T02:04:33.865Z,18.93
2019-01-22T02:07:12.649Z,18.07
2019-01-22T02:09:43.037Z,17.13
2019-01-22T02:12:11.428Z,17.93
2019-01-22T02:14:48.917Z,17.67
2019-01-22T02:17:32.508Z,18.07
2019-01-22T02:20:04.237Z,20.30
2019-01-22T02:22:53.916Z,19.43
2019-01-22T02:25:41.221Z,20.47
2019-01-22T02:28:22.953Z,19.97
2019-01-22T02:31:09.224Z,18.63
2019-01-22T02:33:46.305Z,18.57
2019-01-22T02:36:29.722Z,18.93
2019-01-22T02:39:07.749Z,20.10
2019-01-22T02:41:39.477Z,20.87
2019-01-22T02:45:01.898Z,19.60
2019-01-22T02:47:33.935Z,19.00
2019-01-22T02:50:34.593Z,19.97
2019-01-22T02:53:16.638Z,20.03
2019-01-22T02:55:53.956Z,18.73
2019-01-22T02:58:58.605Z,18.93
2019-01-22T03:01:34.633Z,17.97
2019-01-22T03:04:07.752Z,17.40
2019-01-22T03:06:58.629Z,18.00
2019-01-22T03:09:35.221Z,18.87
2019-01-22T03:12:13.912Z,19.63
2019-01-22T03:14:51.146Z,21.13
2019-01-22T03:17:54.637Z,20.70
2019-01-22T03:20:28.770Z,19.97
2019-01-22T03:23:17.357Z,18.93
2019-01-22T03:25:51.860Z,17.47
2019-01-22T03:28:27.999Z,17.57
2019-01-22T03:31:14.387Z,17.53
2019-01-22T03:33:48.790Z,17.93
2019-01-22T03:36:31.144Z,17.60
2019-01-22T03:39:15.710Z,17.93
2019-01-22T03:42:11.106Z,17.97
2019-01-22T03:44:48.545Z,17.73
2019-01-22T03:47:37.661Z,16.20
2019-01-22T03:50:33.987Z,15.73
2019-01-22T03:53:04.470Z,17.97
2019-01-22T03:56:07.753Z,19.00
2019-01-22T03:58:42.156Z,17.90
2019-01-22T04:01:13.417Z,20.60
2019-01-22T04:03:44.633Z,19.17
2019-01-22T04:06:15.761Z,19.03
2019-01-22T04:08:50.190Z,18.60
2019-01-22T04:11:24.741Z,18.90
2019-01-22T04:14:02.002Z,17.50
2019-01-22T04:16:32.723Z,17.77
2019-01-22T04:19:10.322Z,15.77
2019-01-22T04:21:44.107Z,15.93
2019-01-22T04:24:44.481Z,16.97
2019-01-22T04:27:33.585Z,16.80
2019-01-22T04:30:23.335Z,16.33
2019-01-22T04:33:10.787Z,15.43
2019-01-22T04:36:04.812Z,17.33
2019-01-22T04:38:58.886Z,17.73
2019-01-22T04:41:46.192Z,16.87
2019-01-22T04:44:17.661Z,17.13
2019-01-22T04:46:49.389Z,16.47
2019-01-22T04:49:38.597Z,16.57
2019-01-22T04:52:30.705Z,16.07
2019-01-22T04:55:22.498Z,16.90
2019-01-22T04:58:07.982Z,17.60
2019-01-22T05:00:44.183Z,18.63
2019-01-22T05:03:40.309Z,18.47
2019-01-22T05:06:26.711Z,19.73
2019-01-22T05:09:07.654Z,19.97
2019-01-22T05:12:13.646Z,22.03
2019-01-22T05:15:03.517Z,22.47
2019-01-22T05:17:39.328Z,22.77
2019-01-22T05:20:19.370Z,21.50
2019-01-22T05:23:05.888Z,22.97
2019-01-22T05:25:43.980Z,23.80
2019-01-22T05:28:20.465Z,23.10
2019-01-22T05:31:11.432Z,24.07
2019-01-22T05:34:11.557Z,23.40
2019-01-22T05:36:56.425Z,23.73
2019-01-22T05:39:33.561Z,23.37
2019-01-22T05:42:14.997Z,23.63
2019-01-22T05:45:03.911Z,23.73
2019-01-22T05:47:58.138Z,23.17
2019-01-22T05:50:47.986Z,24.13
2019-01-22T05:53:45.277Z,23.27
2019-01-22T05:56:38.162Z,23.73
2019-01-22T05:59:39.916Z,23.50
2019-01-22T06:02:11.644Z,26.27
2019-01-22T06:05:10.377Z,25.23
2019-01-22T06:07:58.030Z,27.00
2019-01-22T06:10:32.173Z,28.27
2019-01-22T06:13:12.286Z,28.00
2019-01-22T06:15:51.217Z,26.40
2019-01-22T06:18:27.990Z,27.67
2019-01-22T06:21:21.670Z,28.87
2019-01-22T06:24:08.089Z,29.13
2019-01-22T06:26:42.464Z,31.73
2019-01-22T06:29:32.035Z,31.20
2019-01-22T06:32:06.321Z,30.63
2019-01-22T06:35:00.299Z,32.13
2019-01-22T06:37:58.972Z,31.67
2019-01-22T06:40:58.606Z,31.87
2019-01-22T06:43:36.186Z,30.47
2019-01-22T06:46:13.681Z,34.73
2019-01-22T06:49:07.931Z,33.27
2019-01-22T06:52:01.435Z,34.00
2019-01-22T06:54:39.709Z,35.50
2019-01-22T06:57:20.617Z,34.87
2019-01-22T07:00:26.422Z,33.80
2019-01-22T07:03:15.653Z,32.70
2019-01-22T07:06:16.403Z,33.37
2019-01-22T07:09:04.612Z,35.33
2019-01-22T07:11:41.681Z,32.70
2019-01-22T07:14:31.277Z,34.07
2019-01-22T07:17:27.220Z,33.10
2019-01-22T07:20:01.368Z,32.03
2019-01-22T07:22:47.976Z,34.80
2019-01-22T07:25:22.163Z,32.20
2019-01-22T07:28:16.445Z,31.30
2019-01-22T07:31:06.105Z,32.57
2019-01-22T07:33:56.833Z,31.53
2019-01-22T07:36:48.187Z,32.30
2019-01-22T07:39:25.780Z,31.73
2019-01-22T07:42:19.190Z,32.50
2019-01-22T07:44:53.153Z,31.63
2019-01-22T07:47:27.548Z,32.33
2019-01-22T07:49:59.021Z,29.70
2019-01-22T07:52:39.385Z,31.53
2019-01-22T07:55:32.869Z,30.63
2019-01-22T07:58:33.022Z,30.77
2019-01-22T08:01:13.501Z,29.00
2019-01-22T08:04:16.823Z,29.27
2019-01-22T08:06:55.432Z,29.87
2019-01-22T08:09:32.537Z,28.60
2019-01-22T08:12:08.396Z,32.13
2019-01-22T08:14:54.968Z,30.80
2019-01-22T08:17:44.754Z,28.43
2019-01-22T08:20:28.032Z,28.83
2019-01-22T08:23:23.536Z,28.93
2019-01-22T08:26:04.245Z,29.83
2019-01-22T08:28:47.102Z,27.60
2019-01-22T08:31:18.817Z,27.63
2019-01-22T08:33:59.013Z,28.03
2019-01-22T08:36:47.232Z,30.40
2019-01-22T08:39:38.783Z,28.07
2019-01-22T08:42:10.247Z,29.07
2019-01-22T08:44:58.199Z,29.60
2019-01-22T08:47:41.753Z,27.43
2019-01-22T08:50:28.545Z,28.73
2019-01-22T08:53:18.008Z,26.43
2019-01-22T08:56:11.760Z,27.97
2019-01-22T08:59:02.079Z,26.00
2019-01-22T09:01:36.185Z,29.07
2019-01-22T09:04:19.385Z,28.00
2019-01-22T09:06:59.147Z,28.03
2019-01-22T09:09:33.188Z,28.53
2019-01-22T09:12:27.406Z,30.23
2019-01-22T09:15:13.909Z,29.93
2019-01-22T09:18:18.679Z,26.60
2019-01-22T09:21:09.192Z,28.50
2019-01-22T09:23:46.236Z,28.07
2019-01-22T09:26:18.432Z,28.07
2019-01-22T09:29:09.875Z,28.67
2019-01-22T09:32:10.390Z,28.13
2019-01-22T09:34:54.141Z,28.67
2019-01-22T09:37:25.605Z,27.70
2019-01-22T09:39:55.671Z,29.07
2019-01-22T09:42:24.115Z,28.97
2019-01-22T09:44:54.285Z,31.83
2019-01-22T09:47:22.909Z,29.83
2019-01-22T09:49:54.365Z,30.83
2019-01-22T09:52:22.800Z,27.77
2019-01-22T09:54:51.216Z,29.63
2019-01-22T09:57:19.617Z,29.70
2019-01-22T09:59:49.642Z,29.07
2019-01-22T10:02:18.294Z,29.00
2019-01-22T10:04:48.601Z,28.13
2019-01-22T10:07:16.985Z,30.20
2019-01-22T10:09:47.028Z,28.17
2019-01-22T10:12:15.476Z,34.03
2019-01-22T10:14:45.678Z,37.27
2019-01-22T10:17:16.917Z,31.07
2019-01-22T10:19:46.105Z,29.27
2019-01-22T10:22:17.304Z,28.27
2019-01-22T10:24:48.669Z,27.50
2019-01-22T10:27:25.547Z,28.83
2019-01-22T10:29:56.853Z,28.40
2019-01-22T10:32:35.441Z,28.73
2019-01-22T10:35:05.465Z,27.47
2019-01-22T10:37:36.889Z,28.70
2019-01-22T10:40:10.037Z,27.30
2019-01-22T10:42:38.432Z,27.57
2019-01-22T10:45:11.563Z,29.27
2019-01-22T10:47:42.443Z,27.60
2019-01-22T10:50:13.465Z,25.63
2019-01-22T10:52:44.590Z,25.97
2019-01-22T10:55:15.683Z,26.30
2019-01-22T10:57:44.922Z,28.30
2019-01-22T11:00:19.279Z,27.53
2019-01-22T11:02:47.698Z,27.53
2019-01-22T11:05:35.997Z,27.40
2019-01-22T11:08:06.252Z,27.87
2019-01-22T11:10:34.639Z,30.17
2019-01-22T11:13:03.864Z,28.70
2019-01-22T11:15:35.255Z,29.63
2019-01-22T11:18:04.425Z,27.50
2019-01-22T11:20:35.398Z,28.10
2019-01-22T11:23:04.553Z,27.47
2019-01-22T11:25:35.283Z,27.97
2019-01-22T11:28:05.309Z,29.10
2019-01-22T11:30:35.413Z,29.60
2019-01-22T11:33:06.208Z,27.20
2019-01-22T11:35:34.613Z,28.87
2019-01-22T11:38:12.256Z,28.23
2019-01-22T11:40:38.880Z,30.13
2019-01-22T11:43:12.692Z,29.00
2019-01-22T11:45:41.168Z,27.93
2019-01-22T11:48:11.167Z,28.43
2019-01-22T11:50:39.838Z,31.77
2019-01-22T11:53:09.133Z,44.27
2019-01-22T11:55:37.600Z,30.30
2019-01-22T11:58:06.665Z,29.63
2019-01-22T12:00:40.407Z,29.90
2019-01-22T12:03:10.449Z,40.43
2019-01-22T12:05:38.862Z,39.63
2019-01-22T12:08:07.265Z,32.43
2019-01-22T12:10:41.720Z,28.97
2019-01-22T12:13:10.100Z,30.00
2019-01-22T12:15:38.745Z,29.87
2019-01-22T12:18:07.298Z,27.77
2019-01-22T12:20:43.742Z,28.87
2019-01-22T12:23:13.677Z,28.53
2019-01-22T12:25:42.140Z,30.23
2019-01-22T12:28:16.222Z,28.97
2019-01-22T12:30:44.854Z,28.40
2019-01-22T12:33:13.251Z,28.20
2019-01-22T12:35:41.894Z,29.57
2019-01-22T12:38:10.281Z,28.03
2019-01-22T12:40:38.927Z,27.77
2019-01-22T12:43:08.073Z,28.87
2019-01-22T12:45:43.753Z,29.73
2019-01-22T12:48:12.165Z,30.47
2019-01-22T12:50:43.659Z,30.47
2019-01-22T12:53:14.760Z,30.40
2019-01-22T12:55:45.188Z,30.80
2019-01-22T12:58:15.212Z,28.63
2019-01-22T13:00:46.616Z,31.67
2019-01-22T13:03:19.530Z,30.07
2019-01-22T13:05:51.332Z,30.40
2019-01-22T13:08:22.415Z,30.03
2019-01-22T13:10:50.804Z,29.93
2019-01-22T13:13:21.629Z,30.70
2019-01-22T13:15:53.029Z,30.80
2019-01-22T13:18:21.497Z,30.20
2019-01-22T13:20:51.600Z,29.80
2019-01-22T13:23:23.061Z,29.13
2019-01-22T13:25:52.363Z,32.03
2019-01-22T13:28:30.298Z,31.63
2019-01-22T13:30:56.338Z,32.17
2019-01-22T13:33:24.737Z,32.43
2019-01-22T13:35:56.097Z,32.90
2019-01-22T13:38:24.493Z,30.57
2019-01-22T13:40:56.082Z,30.07
2019-01-22T13:43:26.008Z,30.30
2019-01-22T13:46:00.493Z,30.27
2019-01-22T13:48:31.297Z,31.00
2019-01-22T13:51:04.294Z,29.97
2019-01-22T13:53:34.565Z,30.33
2019-01-22T13:56:03.659Z,30.50
2019-01-22T13:58:32.048Z,29.20
2019-01-22T14:01:00.442Z,30.60
2019-01-22T14:03:30.477Z,30.73
2019-01-22T14:06:01.618Z,30.57
2019-01-22T14:08:30.016Z,30.70
2019-01-22T14:11:05.066Z,28.90
2019-01-22T14:13:39.056Z,29.30
2019-01-22T14:16:07.519Z,29.00
2019-01-22T14:18:38.856Z,28.83
2019-01-22T14:21:10.428Z,28.20
2019-01-22T14:23:38.842Z,27.17
2019-01-22T14:26:07.235Z,29.53
2019-01-22T14:28:38.838Z,29.67
2019-01-22T14:31:15.852Z,31.00
2019-01-22T14:33:51.850Z,29.37
2019-01-22T14:36:21.878Z,29.03
2019-01-22T14:39:02.028Z,31.00
2019-01-22T14:41:39.416Z,29.67
2019-01-22T14:44:07.820Z,32.30
2019-01-22T14:46:36.208Z,31.10
2019-01-22T14:49:13.350Z,30.00
2019-01-22T14:51:41.997Z,31.17
2019-01-22T14:54:10.389Z,30.37
2019-01-22T14:56:41.191Z,30.13
2019-01-22T14:59:12.740Z,29.27
2019-01-22T15:01:50.009Z,29.07
2019-01-22T15:04:21.292Z,29.67
2019-01-22T15:06:49.687Z,31.13
2019-01-22T15:09:18.067Z,28.93
2019-01-22T15:11:54.880Z,29.37
2019-01-22T15:14:23.266Z,29.07
2019-01-22T15:16:57.982Z,27.87
2019-01-22T15:19:29.217Z,27.30
2019-01-22T15:22:00.418Z,27.83
2019-01-22T15:24:28.818Z,30.13
2019-01-22T15:27:07.572Z,44.60
2019-01-22T15:29:33.540Z,29.20
2019-01-22T15:32:01.998Z,28.33
2019-01-22T15:34:30.662Z,28.33
2019-01-22T15:37:04.720Z,27.03
2019-01-22T15:39:33.129Z,29.07
2019-01-22T15:42:01.551Z,27.57
2019-01-22T15:44:31.599Z,33.83
2019-01-22T15:47:00.050Z,30.70
2019-01-22T15:49:28.459Z,31.80
2019-01-22T15:52:04.895Z,29.90
2019-01-22T15:54:39.690Z,30.30
2019-01-22T15:57:09.716Z,28.77
2019-01-22T15:59:38.101Z,30.80
2019-01-22T16:02:06.498Z,28.80
2019-01-22T16:04:37.676Z,30.70
2019-01-22T16:07:12.530Z,30.90
2019-01-22T16:09:54.053Z,27.53
2019-01-22T16:12:22.534Z,29.47
2019-01-22T16:14:53.654Z,26.23
2019-01-22T16:17:22.061Z,25.60
2019-01-22T16:19:54.632Z,27.00
2019-01-22T16:22:24.668Z,26.80
2019-01-22T16:24:53.057Z,25.23
2019-01-22T16:27:21.461Z,23.77
2019-01-22T16:29:55.849Z,22.33
2019-01-22T16:32:25.754Z,22.07
2019-01-22T16:34:57.491Z,22.13
2019-01-22T16:37:26.173Z,23.73
2019-01-22T16:40:01.026Z,22.23
2019-01-22T16:42:38.716Z,24.93
2019-01-22T16:45:13.029Z,23.03
2019-01-22T16:47:41.421Z,21.27
2019-01-22T16:50:15.772Z,18.57
2019-01-22T16:52:48.014Z,20.70
2019-01-22T16:55:19.563Z,21.43
2019-01-22T16:57:47.976Z,21.30
2019-01-22T17:00:19.458Z,21.30
2019-01-22T17:02:48.845Z,21.47
2019-01-22T17:05:18.104Z,19.90
2019-01-22T17:07:51.277Z,19.43
2019-01-22T17:10:21.492Z,18.93
2019-01-22T17:12:50.982Z,17.63
2019-01-22T17:15:26.308Z,17.20
2019-01-22T17:17:57.729Z,17.37
2019-01-22T17:20:29.202Z,17.90
2019-01-22T17:23:01.932Z,18.30
2019-01-22T17:25:27.697Z,18.47
2019-01-22T17:27:56.964Z,17.90
2019-01-22T17:30:26.084Z,16.07
2019-01-22T17:33:09.914Z,21.50
2019-01-22T17:35:39.942Z,18.60
2019-01-22T17:38:26.656Z,17.37
2019-01-22T17:40:57.689Z,17.10
2019-01-22T17:43:30.643Z,17.23
2019-01-22T17:46:01.978Z,16.20
2019-01-22T17:48:34.782Z,16.63
2019-01-22T17:51:03.176Z,16.97
2019-01-22T17:53:33.397Z,17.53
2019-01-22T17:56:01.826Z,18.63
2019-01-22T17:58:31.764Z,17.63
2019-01-22T18:01:00.235Z,17.80
2019-01-22T18:03:31.614Z,16.70
2019-01-22T18:06:00.009Z,15.53
2019-01-22T18:08:28.660Z,17.10
2019-01-22T18:10:57.044Z,18.00
2019-01-22T18:13:25.445Z,17.87
2019-01-22T18:15:55.493Z,17.43
2019-01-22T18:18:23.877Z,17.60
2019-01-22T18:20:58.401Z,16.50
2019-01-22T18:23:28.430Z,16.07
2019-01-22T18:25:58.467Z,16.97
2019-01-22T18:28:35.496Z,16.80
2019-01-22T18:31:08.501Z,16.97
2019-01-22T18:33:36.886Z,17.87
2019-01-22T18:36:09.535Z,18.00
2019-01-22T18:38:40.964Z,17.30
2019-01-22T18:41:12.168Z,17.30
2019-01-22T18:43:48.134Z,17.80
2019-01-22T18:46:20.864Z,18.87
2019-01-22T18:48:52.397Z,17.70
2019-01-22T18:51:20.801Z,17.53
2019-01-22T18:53:50.360Z,19.00
2019-01-22T18:56:20.411Z,19.80
2019-01-22T18:58:51.477Z,19.03
2019-01-22T19:01:20.136Z,19.03
2019-01-22T19:03:50.241Z,18.30
2019-01-22T19:06:22.649Z,19.53
2019-01-22T19:08:55.803Z,19.63
2019-01-22T19:11:24.445Z,18.43
2019-01-22T19:13:52.848Z,18.23
2019-01-22T19:16:21.249Z,20.27
2019-01-22T19:18:49.681Z,20.40
2019-01-22T19:21:18.069Z,17.37
2019-01-22T19:23:46.455Z,17.63
2019-01-22T19:26:14.849Z,18.83
2019-01-22T19:28:45.117Z,19.03
2019-01-22T19:31:13.530Z,18.87
2019-01-22T19:33:41.917Z,19.80
2019-01-22T19:36:10.357Z,21.00
2019-01-22T19:38:45.545Z,20.57
2019-01-22T19:41:16.639Z,25.70
2019-01-22T19:43:46.563Z,18.23
2019-01-22T19:46:16.118Z,21.73
2019-01-22T19:48:47.661Z,22.70
2019-01-22T19:51:23.064Z,20.00
2019-01-22T19:53:55.982Z,18.30
2019-01-22T19:56:24.379Z,19.30
2019-01-22T19:58:52.765Z,18.83
2019-01-22T20:01:25.775Z,18.50
2019-01-22T20:03:55.429Z,18.00
2019-01-22T20:06:28.834Z,19.60
2019-01-22T20:08:57.233Z,18.87
2019-01-22T20:11:27.405Z,27.83
2019-01-22T20:13:57.448Z,19.33
2019-01-22T20:16:33.118Z,22.13
2019-01-22T20:19:04.548Z,17.60
2019-01-22T20:21:32.940Z,18.17
2019-01-22T20:24:01.354Z,17.80
2019-01-22T20:26:31.385Z,18.80
2019-01-22T20:29:02.701Z,16.80
2019-01-22T20:31:32.754Z,19.43
2019-01-22T20:34:01.163Z,16.97
2019-01-22T20:36:35.821Z,17.77
2019-01-22T20:39:04.748Z,16.60
2019-01-22T20:41:34.204Z,18.33
2019-01-22T20:44:02.838Z,17.67
2019-01-22T20:46:32.349Z,17.63
2019-01-22T20:49:01.096Z,19.03
2019-01-22T20:51:29.484Z,18.37
2019-01-22T20:53:57.886Z,18.60
2019-01-22T20:56:34.217Z,18.90
2019-01-22T20:59:04.304Z,18.40
2019-01-22T21:01:33.505Z,17.03
2019-01-22T21:04:02.144Z,16.87
2019-01-22T21:06:33.224Z,17.67
2019-01-22T21:09:05.941Z,18.47
2019-01-22T21:11:37.011Z,21.73
2019-01-22T21:14:07.722Z,26.73
2019-01-22T21:16:36.125Z,22.53
2019-01-22T21:19:07.063Z,21.03
2019-01-22T21:21:35.445Z,19.53
2019-01-22T21:24:06.777Z,17.73
2019-01-22T21:26:38.121Z,17.97
2019-01-22T21:29:08.163Z,18.20
2019-01-22T21:31:40.881Z,17.63
2019-01-22T21:34:10.918Z,17.83
2019-01-22T21:36:40.112Z,19.77
2019-01-22T21:39:08.506Z,19.50
2019-01-22T21:41:39.609Z,19.07
2019-01-22T21:44:08.033Z,20.17
2019-01-22T21:46:37.971Z,19.47
2019-01-22T21:49:08.010Z,20.23
2019-01-22T21:51:43.877Z,20.60
2019-01-22T21:54:12.685Z,20.40
2019-01-22T21:56:44.032Z,21.33
2019-01-22T21:59:12.448Z,20.57
2019-01-22T22:01:40.836Z,20.40
2019-01-22T22:04:09.230Z,20.50
2019-01-22T22:06:37.633Z,21.50
2019-01-22T22:09:10.509Z,19.70
2019-01-22T22:11:38.945Z,21.23
2019-01-22T22:14:07.346Z,21.50
2019-01-22T22:16:38.801Z,20.20
2019-01-22T22:19:07.191Z,20.17
2019-01-22T22:21:39.225Z,21.07
2019-01-22T22:24:14.120Z,21.63
2019-01-22T22:26:54.163Z,20.87
2019-01-22T22:29:25.623Z,20.93
2019-01-22T22:31:56.553Z,21.33
2019-01-22T22:34:27.580Z,20.10
2019-01-22T22:36:55.989Z,20.63
2019-01-22T22:39:24.398Z,21.50
2019-01-22T22:41:53.025Z,20.23
2019-01-22T22:44:21.421Z,20.70
2019-01-22T22:46:49.878Z,20.03
2019-01-22T22:49:19.930Z,19.73
2019-01-22T22:52:10.322Z,21.63
2019-01-22T22:54:42.470Z,20.57
2019-01-22T22:57:10.869Z,20.33
2019-01-22T22:59:43.593Z,20.60
2019-01-22T23:02:11.990Z,21.00
2019-01-22T23:04:46.122Z,21.00
2019-01-22T23:07:16.057Z,19.77
2019-01-22T23:09:47.529Z,20.33
2019-01-22T23:12:20.299Z,22.07
2019-01-22T23:14:48.689Z,20.90
2019-01-22T23:17:17.097Z,21.07
2019-01-22T23:19:48.166Z,19.93
2019-01-22T23:22:16.560Z,21.03
2019-01-22T23:24:49.493Z,20.07
2019-01-22T23:27:20.824Z,21.40
2019-01-22T23:29:49.224Z,21.83
2019-01-22T23:32:20.597Z,21.20
2019-01-22T23:34:51.701Z,20.70
2019-01-22T23:37:21.749Z,20.77
2019-01-22T23:39:50.161Z,20.77
2019-01-22T23:42:21.636Z,20.03
2019-01-22T23:44:50.040Z,21.13
2019-01-22T23:47:18.427Z,21.63
2019-01-22T23:49:49.956Z,19.97
2019-01-22T23:52:21.303Z,21.30
2019-01-22T23:54:50.042Z,21.00
2019-01-22T23:57:18.434Z,21.00
2019-01-22T23:59:47.060Z,21.23
